Hauptseite
METAR-TAF:

METAR-TAF

Flughäfen :

Flughafen Linz

Linz, Österreich

Breite: 48-14N, Länge: 014-11E, Höhe: 298 m

Beobachtung

Neuester Wetterbericht von vor 30 Minuten, um 02:50 UTC
Wind 11 kt aus Ost
Temperatur 2°C
Luftfeuchtigkeit 87%
Luftdruck 1029 hPa
Sichtweite 10 km oder mehr

METAR: LOWL 170250Z AUTO 10011KT 9999 NSC 02/00 Q1029

Zeit: 04:20 (03:20 UTC)

Prognose

Neuester Wetterbericht von vor 4 Stunden und 5 Minuten, um 23:15 UTC
Gültige Prognose vom 17 um 00 UTC bis 17 um 24 UTC
Wind 11 kt aus Ost
Sichtweite 10 km oder mehr
keine Wolken unter 1500 m und keine Kumulonimbus oder Gewitterwolken
Zeitweise
vom 17 um 00 UTC bis 17 um 15 UTC
Wind 16 kt aus Ost, Böen bis zu 26 kt

TAF: LOWL 162315Z 1700/1724 08011KT CAVOK TX08/1714Z TN00/1724Z TEMPO 1700/1715 10016G26KT

Wetterbeobachtungen und Prognosen von mehr als 4000 Flughäfen (METAR und TAF Bericht).

Die verfügbaren Stationen werden durch gelbe und rote Markierungen auf der Karte dargestellt.

Führen Sie die Maus auf sie, um den Namen der Station zu sehen.

Darauf klicken, um die Beobachtung von Wetterbeobachtungen und Prognosen zu sehen.

Um die Karte zu ändern : klicken Sie auf den grünen Tasten mit einem schwarzen Kreuz Zum Vergrößern, auf den grünen Button mit einem Gedankenstrich zu verkleinern, oder auf die grünen Pfeile für benachbarte Karten.


METAR-TAF: